Time;durP1;ratioP1;P1;durP2;ratioP2;P2;SDS_P1;SDS_P2;PMS_P1;PMS_P2;Temp;Humidity;BMP_temperature;BMP_pressure;BME280_temperature;BME280_humidity;BME280_pressure;Samples;Min_cycle;Max_cycle;Signal;HPM_P1;HPM_P2
2021/06/11 00:00:08;;;;;;;;;;;;;;;25.43;39.09;101050.69;4967745;28;1165;-67
2021/06/11 00:02:35;;;;;;;;;;;;;;;25.45;39.06;101053.22;4968584;28;1280;-67
2021/06/11 00:05:02;;;;;;;;;;;;;;;25.41;39.09;101039.28;4968507;28;1113;-67
2021/06/11 00:07:29;;;;;;;;;;;;;;;25.38;38.63;101034.19;4968490;28;1304;-67
2021/06/11 00:09:56;;;;;;;;;;;;;;;25.33;38.56;101040.88;4968295;28;1906;-67
2021/06/11 00:12:37;;;;;;;;;;;;;;;25.36;38.71;101041.50;4968556;28;1398;-67
2021/06/11 00:15:05;;;;;;;;;;;;;;;25.36;38.74;101040.63;4968526;28;1138;-67
2021/06/11 00:17:32;;;;;;;;;;;;;;;25.31;39.09;101038.34;4968288;28;1253;-67
2021/06/11 00:19:59;;;;;;;;;;;;;;;25.30;39.16;101035.78;4968113;28;1072;-67
2021/06/11 00:22:27;;;;;;;;;;;;;;;25.31;38.98;101042.81;4968021;28;1236;-66
2021/06/11 00:24:53;;;;;;;;;;;;;;;25.30;39.46;101041.13;4967294;28;1242;-68
2021/06/11 00:27:20;;;;;;;;;;;;;;;25.28;39.07;101038.59;4968968;28;1224;-67
2021/06/11 00:29:47;;;;;;;;;;;;;;;25.28;38.94;101030.59;4968148;28;1918;-67
2021/06/11 00:32:14;;;;;;;;;;;;;;;25.27;39.16;101028.88;4968631;28;1305;-67
2021/06/11 00:34:41;;;;;;;;;;;;;;;25.25;39.39;101022.84;4968094;28;803;-67
2021/06/11 00:37:07;;;;;;;;;;;;;;;25.26;38.91;101019.19;4966916;28;1244;-66
2021/06/11 00:39:34;;;;;;;;;;;;;;;25.23;39.03;101019.44;4968396;28;794;-67
2021/06/11 00:42:01;;;;;;;;;;;;;;;25.24;39.10;101015.81;4967192;28;1351;-66
2021/06/11 00:44:28;;;;;;;;;;;;;;;25.22;39.16;101012.44;4968281;28;894;-66
2021/06/11 00:46:55;;;;;;;;;;;;;;;25.28;38.77;101011.09;4968177;28;1753;-66
2021/06/11 00:49:22;;;;;;;;;;;;;;;25.30;39.08;101001.97;4967779;28;783;-67
2021/06/11 00:51:49;;;;;;;;;;;;;;;25.28;38.94;101000.41;4966418;28;2044;-66
2021/06/11 00:54:16;;;;;;;;;;;;;;;25.27;38.98;100998.72;4966867;28;714;-67
2021/06/11 00:56:43;;;;;;;;;;;;;;;25.29;38.94;100996.78;4966708;28;1224;-67
2021/06/11 00:59:11;;;;;;;;;;;;;;;25.28;39.01;100995.94;4968183;28;821;-67
2021/06/11 01:01:37;;;;;;;;;;;;;;;25.31;38.55;100992.16;4968721;28;1247;-67
2021/06/11 01:04:04;;;;;;;;;;;;;;;25.25;39.18;100990.84;4967898;28;1283;-67
2021/06/11 01:06:31;;;;;;;;;;;;;;;25.26;38.82;100992.53;4967867;28;1206;-66
2021/06/11 01:08:58;;;;;;;;;;;;;;;25.23;38.88;100981.28;4966439;28;1499;-67
2021/06/11 01:11:26;;;;;;;;;;;;;;;25.19;39.16;100986.00;4967116;28;1942;-67
2021/06/11 01:13:53;;;;;;;;;;;;;;;25.21;39.05;100986.72;4967635;28;834;-67
2021/06/11 01:16:19;;;;;;;;;;;;;;;25.20;39.02;100982.34;4965922;28;1358;-66
2021/06/11 01:18:46;;;;;;;;;;;;;;;25.20;39.27;100981.53;4965399;28;1253;-67
2021/06/11 01:21:13;;;;;;;;;;;;;;;25.25;39.37;100982.00;4965940;28;1805;-67
2021/06/11 01:23:40;;;;;;;;;;;;;;;25.27;39.00;100977.38;4967238;28;1261;-67
2021/06/11 01:26:23;;;;;;;;;;;;;;;25.25;39.30;100974.84;4967654;28;1068;-66
2021/06/11 01:29:13;;;;;;;;;;;;;;;25.23;39.42;100981.28;4967290;28;1087;-67
2021/06/11 01:31:41;;;;;;;;;;;;;;;25.21;39.49;100984.06;4976708;28;1923;-67
2021/06/11 01:34:11;;;;;;;;;;;;;;;25.23;39.29;100986.63;4967393;28;779;-67
2021/06/11 01:36:45;;;;;;;;;;;;;;;25.26;39.50;100989.84;4967486;28;1300;-67
2021/06/11 01:39:14;;;;;;;;;;;;;;;25.24;38.84;100980.28;4965610;28;1359;-67
2021/06/11 01:41:41;;;;;;;;;;;;;;;25.24;38.01;100993.63;4967420;28;1363;-67
2021/06/11 01:44:09;;;;;;;;;;;;;;;25.22;37.68;100991.09;4965414;28;1408;-67
2021/06/11 01:46:37;;;;;;;;;;;;;;;25.22;37.60;100983.09;4949997;28;1522;-67
2021/06/11 01:49:04;;;;;;;;;;;;;;;25.25;37.18;100982.00;4958295;28;1045;-64
2021/06/11 01:51:32;;;;;;;;;;;;;;;25.22;37.00;100974.25;4965713;28;1915;-65
2021/06/11 01:54:00;;;;;;;;;;;;;;;25.16;36.95;100970.25;4967316;28;799;-65
2021/06/11 01:56:28;;;;;;;;;;;;;;;25.07;36.81;100976.34;4967046;28;1239;-65
2021/06/11 01:58:55;;;;;;;;;;;;;;;25.12;37.22;100978.63;4966973;28;809;-65
2021/06/11 02:01:22;;;;;;;;;;;;;;;25.14;38.27;100977.50;4964548;28;1277;-65
2021/06/11 02:03:50;;;;;;;;;;;;;;;25.15;38.92;100984.56;4947493;28;775;-65
2021/06/11 02:06:18;;;;;;;;;;;;;;;25.16;39.16;100978.25;4947398;28;1217;-65
2021/06/11 02:08:46;;;;;;;;;;;;;;;25.14;39.47;100980.19;4947668;28;799;-65
2021/06/11 02:11:13;;;;;;;;;;;;;;;25.16;39.41;100985.41;4947756;28;1987;-65
2021/06/11 02:13:41;;;;;;;;;;;;;;;25.06;39.90;100987.94;4947483;28;1332;-65
2021/06/11 02:16:10;;;;;;;;;;;;;;;25.06;40.00;100979.09;4946398;28;1231;-65
2021/06/11 02:18:37;;;;;;;;;;;;;;;25.02;40.21;100980.34;4947570;28;1320;-65
2021/06/11 02:21:08;;;;;;;;;;;;;;;25.09;40.13;100981.53;4946052;28;1350;-65
2021/06/11 02:23:35;;;;;;;;;;;;;;;25.10;40.09;100985.91;4945962;28;1311;-65
2021/06/11 02:26:03;;;;;;;;;;;;;;;25.13;40.27;100980.31;4951143;28;1057;-65
2021/06/11 02:28:30;;;;;;;;;;;;;;;25.14;40.04;100974.84;4950580;28;1246;-65
2021/06/11 02:30:58;;;;;;;;;;;;;;;25.06;40.66;100979.97;4949346;28;2474;-65
2021/06/11 02:33:26;;;;;;;;;;;;;;;25.05;40.82;100969.44;4950527;28;1222;-65
2021/06/11 02:35:54;;;;;;;;;;;;;;;25.05;40.93;100978.25;4949118;28;1349;-65
2021/06/11 02:38:21;;;;;;;;;;;;;;;24.98;40.89;100975.25;4950456;28;1263;-65
2021/06/11 02:40:49;;;;;;;;;;;;;;;24.99;41.02;100973.41;4950669;28;1187;-65
2021/06/11 02:43:17;;;;;;;;;;;;;;;24.96;41.14;100971.84;4950777;28;1300;-65
2021/06/11 02:45:49;;;;;;;;;;;;;;;24.94;41.48;100981.78;4949485;28;1218;-64
2021/06/11 02:48:23;;;;;;;;;;;;;;;24.89;41.56;100983.97;4950561;29;1372;-64
2021/06/11 02:50:52;;;;;;;;;;;;;;;24.84;41.41;100979.94;4951002;29;1915;-64
2021/06/11 02:53:26;;;;;;;;;;;;;;;24.89;41.16;100983.13;4950501;28;1253;-65
2021/06/11 02:55:58;;;;;;;;;;;;;;;24.85;41.49;100981.66;4950881;29;1151;-65
2021/06/11 02:58:29;;;;;;;;;;;;;;;24.83;41.74;100984.47;4948882;28;1280;-64
2021/06/11 03:00:56;;;;;;;;;;;;;;;24.82;41.28;100976.56;4949294;29;987;-65
2021/06/11 03:03:27;;;;;;;;;;;;;;;24.79;41.79;100980.31;4948674;28;1261;-65
2021/06/11 03:05:55;;;;;;;;;;;;;;;24.74;41.87;100979.81;4950619;28;1052;-65
2021/06/11 03:08:23;;;;;;;;;;;;;;;24.75;41.62;100973.50;4950234;28;1301;-65
2021/06/11 03:10:52;;;;;;;;;;;;;;;24.73;41.92;100977.25;4950009;28;1910;-65
2021/06/11 03:13:21;;;;;;;;;;;;;;;24.84;41.66;100974.63;4949838;28;1182;-65
2021/06/11 03:15:48;;;;;;;;;;;;;;;24.83;41.44;100967.63;4950113;28;1128;-65
2021/06/11 03:18:28;;;;;;;;;;;;;;;24.79;41.82;100966.13;4948485;28;1308;-65
2021/06/11 03:20:57;;;;;;;;;;;;;;;24.74;41.79;100970.97;4948663;28;1077;-66
2021/06/11 03:23:27;;;;;;;;;;;;;;;24.78;42.13;100975.94;4948337;28;1221;-65
2021/06/11 03:25:56;;;;;;;;;;;;;;;24.76;42.17;100974.38;4950110;28;1049;-65
2021/06/11 03:28:27;;;;;;;;;;;;;;;24.72;42.16;100968.41;4950164;28;1221;-65
2021/06/11 03:30:59;;;;;;;;;;;;;;;24.71;42.17;100968.56;4949413;28;1906;-65
2021/06/11 03:33:27;;;;;;;;;;;;;;;24.73;42.03;100977.25;4949933;29;1348;-65
2021/06/11 03:35:58;;;;;;;;;;;;;;;24.76;42.05;100972.56;4949585;28;880;-65
2021/06/11 03:38:27;;;;;;;;;;;;;;;24.80;41.86;100975.81;4949069;29;1265;-65
2021/06/11 03:40:56;;;;;;;;;;;;;;;24.79;42.31;100966.97;4949890;28;1136;-65
2021/06/11 03:43:23;;;;;;;;;;;;;;;24.76;42.03;100971.69;4949730;28;1193;-65
2021/06/11 03:45:51;;;;;;;;;;;;;;;24.70;42.31;100966.84;4949661;28;1439;-65
2021/06/11 03:48:22;;;;;;;;;;;;;;;24.73;42.19;100971.94;4949700;28;1359;-65
2021/06/11 03:50:51;;;;;;;;;;;;;;;24.70;42.42;100972.19;4949796;28;1978;-65
2021/06/11 03:53:21;;;;;;;;;;;;;;;24.68;42.45;100969.66;4950064;28;1272;-66
2021/06/11 03:55:48;;;;;;;;;;;;;;;24.68;42.39;100969.66;4948859;28;1138;-66
2021/06/11 03:58:22;;;;;;;;;;;;;;;24.74;42.24;100971.84;4950327;28;1254;-66
2021/06/11 04:00:53;;;;;;;;;;;;;;;24.65;42.82;100969.88;4949660;28;1147;-66
2021/06/11 04:03:20;;;;;;;;;;;;;;;24.64;42.54;100973.50;4949483;29;1275;-66
2021/06/11 04:05:47;;;;;;;;;;;;;;;24.63;42.76;100966.47;4949287;28;1060;-66
2021/06/11 04:08:18;;;;;;;;;;;;;;;24.58;42.68;100965.16;4932162;28;1336;-66
2021/06/11 04:10:47;;;;;;;;;;;;;;;24.65;42.68;100967.22;4948060;28;1983;-65
2021/06/11 04:13:16;;;;;;;;;;;;;;;24.63;42.55;100966.47;4949318;28;1221;-65
2021/06/11 04:15:47;;;;;;;;;;;;;;;24.61;42.38;100968.41;4948980;28;1243;-65
2021/06/11 04:18:18;;;;;;;;;;;;;;;24.55;42.32;100973.38;4957613;28;1523;-66
2021/06/11 04:20:47;;;;;;;;;;;;;;;24.54;42.55;100983.19;4961799;28;1538;-65
2021/06/11 04:23:15;;;;;;;;;;;;;;;24.54;42.43;100982.31;4968438;28;1217;-65
2021/06/11 04:25:43;;;;;;;;;;;;;;;24.50;42.60;100981.72;4952148;28;1123;-66
2021/06/11 04:28:11;;;;;;;;;;;;;;;24.53;42.61;100985.97;4949106;28;1272;-66
2021/06/11 04:30:38;;;;;;;;;;;;;;;24.54;42.53;100985.84;4951616;28;1534;-66
2021/06/11 04:33:21;;;;;;;;;;;;;;;24.53;42.55;100986.78;4950640;28;1281;-65
2021/06/11 04:35:48;;;;;;;;;;;;;;;24.58;42.60;100989.97;4961113;28;1049;-66
2021/06/11 04:38:15;;;;;;;;;;;;;;;24.55;42.93;100984.88;4967944;28;1225;-66
2021/06/11 04:40:42;;;;;;;;;;;;;;;24.65;42.77;100985.88;4957598;28;1403;-66
2021/06/11 04:43:09;;;;;;;;;;;;;;;24.59;42.83;100999.66;4949578;28;1271;-66
2021/06/11 04:45:36;;;;;;;;;;;;;;;24.63;42.85;100992.25;4952523;28;1627;-67
2021/06/11 04:48:04;;;;;;;;;;;;;;;24.67;42.29;100988.41;4957789;28;1317;-65
2021/06/11 04:50:30;;;;;;;;;;;;;;;24.66;41.92;100997.34;4948405;28;1020;-66
2021/06/11 04:52:57;;;;;;;;;;;;;;;24.63;41.39;100994.91;4946838;28;1910;-68
2021/06/11 04:55:24;;;;;;;;;;;;;;;24.65;41.19;100993.00;4948709;28;1129;-65
2021/06/11 04:57:52;;;;;;;;;;;;;;;24.63;41.65;100987.78;4966023;28;1315;-66
2021/06/11 05:00:19;;;;;;;;;;;;;;;24.66;41.84;100984.88;4967120;28;1168;-66
2021/06/11 05:02:46;;;;;;;;;;;;;;;24.69;41.95;100984.66;4966958;28;1217;-66
2021/06/11 05:05:13;;;;;;;;;;;;;;;24.73;41.90;100986.09;4967414;28;901;-65
2021/06/11 05:07:40;;;;;;;;;;;;;;;24.71;42.44;100984.53;4966642;28;1210;-66
2021/06/11 05:10:08;;;;;;;;;;;;;;;24.75;42.30;100989.50;4966251;28;1736;-65
2021/06/11 05:12:38;;;;;;;;;;;;;;;24.81;42.34;100990.84;4967196;28;2011;-66
2021/06/11 05:15:05;;;;;;;;;;;;;;;24.72;42.48;100986.22;4965854;28;1153;-64
2021/06/11 05:17:32;;;;;;;;;;;;;;;24.67;42.78;100985.75;4966818;28;1261;-64
2021/06/11 05:19:59;;;;;;;;;;;;;;;24.71;42.66;100993.38;4965472;28;1049;-65
2021/06/11 05:22:26;;;;;;;;;;;;;;;24.69;42.71;100991.78;4966550;28;1223;-65
2021/06/11 05:24:53;;;;;;;;;;;;;;;24.68;42.81;100995.44;4966869;28;808;-65
2021/06/11 05:27:20;;;;;;;;;;;;;;;24.68;43.00;101001.63;4966279;28;1204;-65
2021/06/11 05:29:46;;;;;;;;;;;;;;;24.74;42.99;100997.63;4966391;28;1096;-65
2021/06/11 05:32:13;;;;;;;;;;;;;;;24.76;42.80;101009.00;4965540;28;1914;-65
2021/06/11 05:34:40;;;;;;;;;;;;;;;24.81;42.84;101006.84;4966075;28;834;-65
2021/06/11 05:37:07;;;;;;;;;;;;;;;24.79;42.97;101006.09;4965287;28;1378;-63
2021/06/11 05:39:34;;;;;;;;;;;;;;;24.79;42.96;101014.94;4961073;28;1567;-63
2021/06/11 05:42:01;;;;;;;;;;;;;;;24.81;42.99;101012.16;4954108;28;1318;-66
2021/06/11 05:44:27;;;;;;;;;;;;;;;24.84;42.98;101017.25;4947089;28;862;-65
2021/06/11 05:46:56;;;;;;;;;;;;;;;24.87;42.94;101011.69;4946954;28;1541;-64
2021/06/11 05:49:22;;;;;;;;;;;;;;;24.91;42.77;101016.66;4947173;28;921;-65
2021/06/11 05:51:49;;;;;;;;;;;;;;;24.92;42.75;101014.84;4929921;28;2326;-65
2021/06/11 05:54:16;;;;;;;;;;;;;;;24.92;43.14;101009.53;4947727;28;771;-67
2021/06/11 05:56:44;;;;;;;;;;;;;;;24.97;43.20;101018.84;4947170;28;1273;-65
2021/06/11 05:59:11;;;;;;;;;;;;;;;25.08;42.75;101017.16;4948731;28;937;-66
2021/06/11 06:01:38;;;;;;;;;;;;;;;25.00;41.62;101021.28;4950170;28;1264;-64
2021/06/11 06:04:05;;;;;;;;;;;;;;;25.04;41.77;101019.22;4950305;28;776;-63
2021/06/11 06:06:32;;;;;;;;;;;;;;;25.08;40.95;101010.00;4951155;28;1217;-65
2021/06/11 06:08:58;;;;;;;;;;;;;;;25.07;40.57;101020.78;4951032;28;793;-64
2021/06/11 06:11:25;;;;;;;;;;;;;;;25.07;40.50;101016.31;4951020;28;1914;-64
2021/06/11 06:13:51;;;;;;;;;;;;;;;25.05;40.25;101014.75;4950722;28;811;-64
2021/06/11 06:16:19;;;;;;;;;;;;;;;25.08;40.27;101020.66;4950640;28;1280;-65
2021/06/11 06:18:45;;;;;;;;;;;;;;;25.09;40.07;101017.03;4950131;28;1072;-65
2021/06/11 06:21:12;;;;;;;;;;;;;;;25.15;40.16;101013.03;4960025;28;1591;-65
2021/06/11 06:23:39;;;;;;;;;;;;;;;25.19;40.13;101018.00;4954729;28;1414;-65
2021/06/11 06:26:06;;;;;;;;;;;;;;;25.28;39.43;101019.06;4962566;28;1063;-64
2021/06/11 06:28:32;;;;;;;;;;;;;;;25.23;39.87;101018.63;4955942;28;1229;-60
2021/06/11 06:30:59;;;;;;;;;;;;;;;25.27;39.64;101020.03;4968774;28;1142;-64
2021/06/11 06:33:26;;;;;;;;;;;;;;;25.26;39.49;101010.38;4967225;28;1907;-63
2021/06/11 06:35:53;;;;;;;;;;;;;;;25.27;40.14;101014.72;4968948;28;859;-66
2021/06/11 06:38:20;;;;;;;;;;;;;;;25.33;39.79;101012.41;4958601;28;1229;-65
2021/06/11 06:40:49;;;;;;;;;;;;;;;25.35;40.12;101018.44;4960253;28;1583;-65
2021/06/11 06:43:16;;;;;;;;;;;;;;;25.33;41.67;101014.22;4949312;28;1324;-67
2021/06/11 06:45:42;;;;;;;;;;;;;;;25.34;40.96;101010.59;4947923;28;1119;-65
2021/06/11 06:48:09;;;;;;;;;;;;;;;25.34;41.76;101013.25;4948854;28;1386;-65
2021/06/11 06:50:36;;;;;;;;;;;;;;;25.33;40.94;101008.88;4949283;28;1120;-65
2021/06/11 06:53:04;;;;;;;;;;;;;;;25.37;40.42;101021.84;4949116;28;1938;-64
2021/06/11 06:55:31;;;;;;;;;;;;;;;25.36;41.92;101019.31;4949236;28;1148;-64
2021/06/11 06:57:58;;;;;;;;;;;;;;;25.37;42.47;101021.00;4949342;28;1229;-63
2021/06/11 07:00:25;;;;;;;;;;;;;;;25.37;42.77;101027.19;4949587;28;1077;-64
2021/06/11 07:02:52;;;;;;;;;;;;;;;25.40;42.32;101026.94;4953622;28;1236;-64
2021/06/11 07:05:19;;;;;;;;;;;;;;;25.43;43.00;101023.19;4969432;28;1172;-66
2021/06/11 07:07:45;;;;;;;;;;;;;;;25.41;42.73;101027.81;4969414;28;1229;-66
2021/06/11 07:10:12;;;;;;;;;;;;;;;25.40;43.34;101024.28;4967533;28;866;-67
2021/06/11 07:12:42;;;;;;;;;;;;;;;25.39;43.44;101025.25;4963508;28;1973;-65
2021/06/11 07:15:10;;;;;;;;;;;;;;;25.39;43.47;101024.38;4966982;28;1201;-65
2021/06/11 07:17:37;;;;;;;;;;;;;;;25.40;42.96;101023.44;4947829;28;1222;-65
2021/06/11 07:20:05;;;;;;;;;;;;;;;25.42;43.46;101029.47;4962107;28;1866;-66
2021/06/11 07:22:32;;;;;;;;;;;;;;;25.43;43.21;101031.19;4986439;28;1288;-65
2021/06/11 07:25:04;;;;;;;;;;;;;;;25.43;43.56;101034.69;4980819;28;1244;-64
2021/06/11 07:27:33;;;;;;;;;;;;;;;25.43;43.89;101029.38;4985293;28;1305;-63
2021/06/11 07:30:01;;;;;;;;;;;;;;;25.43;43.49;101037.38;4986165;28;1162;-64
2021/06/11 07:32:27;;;;;;;;;;;;;;;25.43;43.79;101034.69;4986567;28;1903;-65
2021/06/11 07:34:54;;;;;;;;;;;;;;;25.45;43.47;101039.91;4967192;28;984;-64
2021/06/11 07:37:21;;;;;;;;;;;;;;;25.47;43.85;101040.63;4967210;28;1229;-65
2021/06/11 07:40:09;;;;;;;;;;;;;;;25.46;44.25;101039.78;4967291;28;1047;-66
2021/06/11 07:42:36;;;;;;;;;;;;;;;25.45;43.85;101046.09;4966680;28;1317;-65
2021/06/11 07:45:03;;;;;;;;;;;;;;;25.46;43.96;101042.44;4948684;28;1048;-65
2021/06/11 07:47:30;;;;;;;;;;;;;;;25.46;43.29;101039.78;4947583;28;1247;-66
2021/06/11 07:49:57;;;;;;;;;;;;;;;25.47;43.29;101049.47;4966760;28;1063;-65
2021/06/11 07:52:24;;;;;;;;;;;;;;;25.47;43.52;101044.13;4966394;28;1911;-64
2021/06/11 07:54:51;;;;;;;;;;;;;;;25.48;44.29;101044.97;4968253;28;969;-64
2021/06/11 07:57:18;;;;;;;;;;;;;;;25.49;43.66;101042.25;4968463;28;1431;-66
2021/06/11 07:59:44;;;;;;;;;;;;;;;25.48;43.97;101048.53;4968540;28;1160;-67
2021/06/11 08:02:12;;;;;;;;;;;;;;;25.49;43.58;101047.56;4967142;28;1299;-66
2021/06/11 08:04:39;;;;;;;;;;;;;;;25.48;44.31;101052.97;4951582;28;822;-66
2021/06/11 08:07:06;;;;;;;;;;;;;;;25.49;44.04;101049.38;4942506;28;1402;-65
2021/06/11 08:09:34;;;;;;;;;;;;;;;25.50;43.53;101049.25;4964820;28;1017;-66
2021/06/11 08:12:03;;;;;;;;;;;;;;;25.50;43.83;101046.56;4950414;28;2005;-65
2021/06/11 08:14:30;;;;;;;;;;;;;;;25.51;43.91;101047.44;4964347;28;1035;-64
2021/06/11 08:16:57;;;;;;;;;;;;;;;25.51;44.23;101040.28;4952423;28;1295;-66
2021/06/11 08:19:24;;;;;;;;;;;;;;;25.51;44.03;101045.63;4963567;28;1057;-67
2021/06/11 08:21:51;;;;;;;;;;;;;;;25.52;43.82;101041.13;4967716;28;1303;-65
2021/06/11 08:24:18;;;;;;;;;;;;;;;25.53;44.08;101042.84;4968144;28;1229;-63
2021/06/11 08:26:44;;;;;;;;;;;;;;;25.56;43.63;101044.41;4967577;28;1296;-64
2021/06/11 08:29:11;;;;;;;;;;;;;;;25.53;43.87;101048.19;4962604;28;987;-63
2021/06/11 08:31:38;;;;;;;;;;;;;;;25.58;42.75;101045.97;4967083;28;1328;-63
2021/06/11 08:34:05;;;;;;;;;;;;;;;25.57;43.33;101046.09;4968100;28;1922;-63
2021/06/11 08:36:31;;;;;;;;;;;;;;;25.57;43.23;101046.09;4966588;28;1480;-62
2021/06/11 08:38:58;;;;;;;;;;;;;;;25.59;42.73;101044.16;5025762;28;1092;-64
2021/06/11 08:41:27;;;;;;;;;;;;;;;25.59;42.67;101046.81;5000738;28;1605;-64
2021/06/11 08:43:55;;;;;;;;;;;;;;;25.58;43.20;101039.78;4966322;28;1424;-64
2021/06/11 08:46:22;;;;;;;;;;;;;;;25.60;43.13;101044.03;4964040;28;1646;-64
2021/06/11 08:48:49;;;;;;;;;;;;;;;25.59;43.09;101042.34;5011731;28;1051;-64
2021/06/11 08:51:16;;;;;;;;;;;;;;;25.59;43.46;101049.50;5067613;28;1264;-63
2021/06/11 08:53:42;;;;;;;;;;;;;;;25.61;43.08;101050.22;5020805;28;2417;-63
2021/06/11 08:56:09;;;;;;;;;;;;;;;25.63;43.08;101053.59;4965790;28;1217;-63
2021/06/11 08:58:39;;;;;;;;;;;;;;;25.72;44.46;101044.84;4948415;28;1217;-63
2021/06/11 09:01:07;;;;;;;;;;;;;;;25.70;44.69;101044.97;4948646;28;1256;-63
2021/06/11 09:03:47;;;;;;;;;;;;;;;25.66;45.42;101048.00;4945761;28;1336;-63
2021/06/11 09:06:16;;;;;;;;;;;;;;;25.65;44.36;101049.00;4948558;28;997;-63
2021/06/11 09:08:54;;;;;;;;;;;;;;;25.69;44.30;101050.44;4956164;28;989;-64
2021/06/11 09:11:22;;;;;;;;;;;;;;;25.66;42.96;101048.00;4967505;28;1553;-63
2021/06/11 09:13:51;;;;;;;;;;;;;;;25.66;43.07;101050.69;4967746;28;1919;-63
2021/06/11 09:16:22;;;;;;;;;;;;;;;25.67;43.24;101057.72;4966224;28;1224;-63
2021/06/11 09:18:53;;;;;;;;;;;;;;;25.71;40.96;101049.34;4967444;28;984;-63
2021/06/11 09:21:37;;;;;;;;;;;;;;;25.73;41.49;101055.41;4966481;28;1288;-63
2021/06/11 09:24:17;;;;;;;;;;;;;;;25.69;42.41;101053.09;4966095;28;1273;-64
2021/06/11 09:27:08;;;;;;;;;;;;;;;25.68;42.90;101056.75;4967661;28;1249;-63
2021/06/11 09:29:36;;;;;;;;;;;;;;;25.72;41.63;101059.03;4951277;28;835;-63
2021/06/11 09:32:12;;;;;;;;;;;;;;;25.71;42.75;101053.84;4930690;28;1911;-64
2021/06/11 09:34:39;;;;;;;;;;;;;;;25.70;42.47;101060.13;4964372;28;962;-63
2021/06/11 09:37:06;;;;;;;;;;;;;;;25.72;41.96;101060.84;4967447;28;1273;-64
2021/06/11 09:40:00;;;;;;;;;;;;;;;25.70;41.67;101060.13;4966750;28;973;-64
2021/06/11 09:42:28;;;;;;;;;;;;;;;25.72;41.29;101058.19;4950903;28;2363;-63
2021/06/11 09:45:03;;;;;;;;;;;;;;;25.73;41.56;101059.88;4947632;29;1151;-64
2021/06/11 09:47:31;;;;;;;;;;;;;;;25.72;41.81;101063.50;4945771;28;1249;-64
2021/06/11 09:50:08;;;;;;;;;;;;;;;25.78;41.46;101063.00;5067513;28;1084;-64
2021/06/11 09:52:52;;;;;;;;;;;;;;;25.75;40.81;101060.59;5066636;28;1914;-63
2021/06/11 09:55:26;;;;;;;;;;;;;;;25.75;41.62;101055.25;4966751;28;1112;-64
2021/06/11 09:58:13;;;;;;;;;;;;;;;25.77;41.17;101050.66;4966743;28;1343;-64
2021/06/11 10:00:52;;;;;;;;;;;;;;;25.83;40.91;101060.84;4966725;28;1064;-64
2021/06/11 10:03:20;;;;;;;;;;;;;;;25.80;41.83;101061.09;4966803;28;1260;-64
2021/06/11 10:05:48;;;;;;;;;;;;;;;25.77;42.68;101061.34;4967386;28;1060;-64
2021/06/11 10:08:16;;;;;;;;;;;;;;;25.76;42.68;101059.63;4966770;28;1257;-63
2021/06/11 10:10:44;;;;;;;;;;;;;;;25.76;42.03;101059.63;4966515;28;1411;-63
2021/06/11 10:13:12;;;;;;;;;;;;;;;25.91;39.80;101066.38;4966831;28;1915;-65
2021/06/11 10:15:40;;;;;;;;;;;;;;;25.88;41.11;101061.28;4966864;28;1133;-64
2021/06/11 10:18:07;;;;;;;;;;;;;;;25.89;40.54;101060.34;4966040;28;1244;-64
2021/06/11 10:20:34;;;;;;;;;;;;;;;25.84;40.71;101060.69;4965408;28;1367;-65
2021/06/11 10:23:03;;;;;;;;;;;;;;;25.81;41.17;101070.75;4964785;28;1287;-64
2021/06/11 10:25:31;;;;;;;;;;;;;;;25.79;41.74;101057.56;4966429;28;1151;-64
2021/06/11 10:27:59;;;;;;;;;;;;;;;25.80;41.55;101061.09;4966716;28;1241;-65
2021/06/11 10:30:28;;;;;;;;;;;;;;;25.77;41.86;101069.34;4966823;28;1048;-64
2021/06/11 10:32:55;;;;;;;;;;;;;;;25.78;41.81;101063.88;4963616;28;1918;-64
2021/06/11 10:35:48;;;;;;;;;;;;;;;25.78;42.06;101065.69;4946108;28;1134;-64
2021/06/11 10:38:31;;;;;;;;;;;;;;;25.76;41.78;101073.81;4954416;28;1360;-64
2021/06/11 10:41:03;;;;;;;;;;;;;;;25.73;43.04;101067.88;4965010;28;1101;-64
2021/06/11 10:43:39;;;;;;;;;;;;;;;25.77;42.45;101083.53;4966314;28;1233;-64
2021/06/11 10:46:29;;;;;;;;;;;;;;;25.76;42.38;101076.50;4969585;28;1516;-64
2021/06/11 10:48:56;;;;;;;;;;;;;;;25.79;42.61;101078.06;4969685;28;1005;-64
2021/06/11 10:51:40;;;;;;;;;;;;;;;25.77;42.01;101078.19;4970012;28;1288;-64
2021/06/11 10:54:16;;;;;;;;;;;;;;;25.76;43.12;101081.84;4969714;28;1914;-64
2021/06/11 10:59:35;;;;;;;;;;;;;;;25.81;42.57;101076.09;4954845;28;1041;-65
2021/06/11 11:02:02;;;;;;;;;;;;;;;25.81;42.65;101073.44;4950610;28;1383;-65
2021/06/11 11:04:30;;;;;;;;;;;;;;;25.82;42.52;101069.81;4965268;28;1012;-64
2021/06/11 11:07:20;;;;;;;;;;;;;;;25.81;42.65;101068.09;4969246;28;1331;-64
2021/06/11 11:09:51;;;;;;;;;;;;;;;25.87;42.15;101067.63;4969510;28;1110;-64
2021/06/11 11:12:19;;;;;;;;;;;;;;;25.87;41.76;101067.63;4969637;28;1418;-64
2021/06/11 11:14:46;;;;;;;;;;;;;;;25.85;41.72;101067.75;4968930;28;2037;-64
2021/06/11 11:17:13;;;;;;;;;;;;;;;25.85;41.84;101064.22;4969308;28;1370;-64
2021/06/11 11:19:48;;;;;;;;;;;;;;;25.84;41.84;101068.69;4968904;28;1174;-65
2021/06/11 11:22:24;;;;;;;;;;;;;;;25.85;41.46;101061.56;4969463;28;1331;-64
2021/06/11 11:24:51;;;;;;;;;;;;;;;25.99;42.21;101066.63;4955869;28;1278;-74
2021/06/11 11:27:18;;;;;;;;;;;;;;;26.02;41.26;101074.38;4970289;28;1643;-68
2021/06/11 11:29:45;;;;;;;;;;;;;;;26.02;42.82;101056.50;5005819;28;1333;-67
2021/06/11 11:32:12;;;;;;;;;;;;;;;25.96;42.57;101066.88;4970954;28;1292;-68
2021/06/11 11:34:41;;;;;;;;;;;;;;;25.95;42.10;101062.50;4965179;28;1918;-66
2021/06/11 11:37:08;;;;;;;;;;;;;;;26.03;42.01;101073.38;4964176;28;1269;-67
2021/06/11 11:39:35;;;;;;;;;;;;;;;26.01;42.12;101062.84;4965625;28;1094;-67
2021/06/11 11:42:02;;;;;;;;;;;;;;;25.99;42.86;101055.94;4963819;28;1268;-65
2021/06/11 11:44:30;;;;;;;;;;;;;;;26.03;42.00;101052.03;4965385;28;1076;-66
2021/06/11 11:46:57;;;;;;;;;;;;;;;26.05;42.25;101047.44;4966227;28;1383;-67
2021/06/11 11:49:24;;;;;;;;;;;;;;;26.03;42.47;101054.69;4964876;28;1207;-67
2021/06/11 11:51:50;;;;;;;;;;;;;;;26.00;42.71;101052.28;4964749;28;1284;-67
2021/06/11 11:54:17;;;;;;;;;;;;;;;25.97;42.63;101047.19;4964867;28;1906;-67
2021/06/11 11:56:44;;;;;;;;;;;;;;;25.97;43.00;101041.84;4965172;28;1264;-67
2021/06/11 11:59:11;;;;;;;;;;;;;;;25.98;43.25;101040.91;4966996;28;1028;-66
2021/06/11 12:01:39;;;;;;;;;;;;;;;26.13;42.95;101042.28;4962221;28;1340;-69
2021/06/11 12:04:06;;;;;;;;;;;;;;;26.08;42.94;101031.16;4960345;28;870;-70
2021/06/11 12:06:33;;;;;;;;;;;;;;;26.05;42.90;101036.75;4952017;28;1264;-68
2021/06/11 12:09:00;;;;;;;;;;;;;;;26.02;43.64;101034.34;4951214;28;1336;-70
2021/06/11 12:11:27;;;;;;;;;;;;;;;26.02;43.66;101037.00;4955029;28;1596;-69
2021/06/11 12:13:54;;;;;;;;;;;;;;;26.01;43.20;101033.47;4949841;28;1975;-70
2021/06/11 12:16:21;;;;;;;;;;;;;;;26.12;43.27;101040.59;4946514;28;1276;-67
2021/06/11 12:18:50;;;;;;;;;;;;;;;26.31;42.40;101035.44;4937259;28;1418;-66
2021/06/11 12:21:27;;;;;;;;;;;;;;;26.23;42.19;101037.91;4945913;28;1771;-64
2021/06/11 12:23:56;;;;;;;;;;;;;;;26.22;42.57;101035.34;4965396;28;1936;-64
2021/06/11 12:26:32;;;;;;;;;;;;;;;26.15;42.66;101029.69;5024631;28;1229;-63
2021/06/11 12:29:01;;;;;;;;;;;;;;;26.22;42.89;101025.53;5009832;28;1256;-63
2021/06/11 12:31:48;;;;;;;;;;;;;;;26.28;41.38;101035.69;5012094;28;1342;-64
2021/06/11 12:34:23;;;;;;;;;;;;;;;26.35;41.91;101033.38;4988223;28;1910;-66
2021/06/11 12:36:54;;;;;;;;;;;;;;;26.53;40.77;101034.47;4986209;28;1260;-63
2021/06/11 12:39:22;;;;;;;;;;;;;;;26.38;41.08;101031.28;4964967;28;1574;-63
2021/06/11 12:41:57;;;;;;;;;;;;;;;26.34;41.48;101028.97;5004639;28;1315;-63
2021/06/11 12:44:27;;;;;;;;;;;;;;;26.32;42.17;101022.94;5003553;28;1536;-62
2021/06/11 12:46:56;;;;;;;;;;;;;;;26.29;42.34;101032.06;4965709;28;1436;-63
2021/06/11 12:49:26;;;;;;;;;;;;;;;26.35;41.77;101025.34;4965799;28;819;-65
2021/06/11 12:52:13;;;;;;;;;;;;;;;26.39;43.28;101032.97;4965710;28;1215;-64
2021/06/11 12:54:40;;;;;;;;;;;;;;;26.36;44.02;101032.38;4964480;28;1985;-63
2021/06/11 12:57:07;;;;;;;;;;;;;;;26.31;44.60;101031.91;4967122;28;1233;-63
2021/06/11 12:59:34;;;;;;;;;;;;;;;26.30;44.93;101023.06;5038896;28;1206;-61